Albuquerque (West), New Mexico
Current Conditions -  °F | °C
As of 6:47 AM on Wednesday 26 Nov 2014 (Local Time) from KAEG Reporting Station
Broken Clouds Broken Clouds  
Wind Chill: 27°   Ceiling: 15000
Heat Index: 27°   Visibility: 10mi
Dew Point:   Wind: 0mph
Humidity: 43%   Direction: NA
Pressure: 30.36"   Gusts: NA
Location:  35.15°N, 106.8°W
Report Text: KAEG 261347Z 00000KT 10SM BKN150 M03/M14 A3036
Loading
Personal Weather Stations






























Interactive Weather Map New forecast layout! Learn more

10-Day Weather Forecast

Advertisements
Track Severe Weather on mobile